Time;durP1;ratioP1;P1;durP2;ratioP2;P2;SDS_P1;SDS_P2;PMS_P1;PMS_P2;Temp;Humidity;BMP_temperature;BMP_pressure;BME280_temperature;BME280_humidity;BME280_pressure;Samples;Min_cycle;Max_cycle;Signal;HPM_P1;HPM_P2
2023/05/13 00:02:19;;;;;;;11.43;8.10;;;8.10;56.50;8.70;94033.00;;;;7405405;19;20180;-83
2023/05/13 00:04:53;;;;;;;8.02;7.20;;;8.00;9.20;8.80;94012.00;;;;7404580;19;20232;-83
2023/05/13 00:07:34;;;;;;;8.37;7.10;;;7.90;35.50;8.60;94040.00;;;;7405241;19;20616;-83
2023/05/13 00:10:08;;;;;;;8.50;7.40;;;7.80;96.20;8.50;94041.00;;;;7406802;19;20131;-84
2023/05/13 00:12:45;;;;;;;9.80;7.55;;;7.80;98.90;8.60;94031.00;;;;7402830;19;20611;-81
2023/05/13 00:15:13;;;;;;;12.17;8.60;;;7.80;99.90;8.70;94022.00;;;;7404972;19;20149;-84
2023/05/13 00:17:46;;;;;;;10.80;7.45;;;7.80;99.90;8.70;94002.00;;;;7406276;19;20607;-83
2023/05/13 00:20:19;;;;;;;12.57;8.27;;;7.90;99.90;8.60;94034.00;;;;7405766;19;20144;-83
2023/05/13 00:22:53;;;;;;;9.63;7.70;;;7.90;99.90;8.60;94044.00;;;;7405036;19;20156;-83
2023/05/13 00:25:20;;;;;;;9.50;7.78;;;7.80;99.90;8.80;94004.00;;;;7407006;19;20155;-83
2023/05/13 00:27:54;;;;;;;13.95;8.07;;;7.80;99.90;8.80;94042.00;;;;7407529;19;20129;-83
2023/05/13 00:30:29;;;;;;;8.18;7.30;;;7.90;99.90;8.90;94011.00;;;;7405693;19;20678;-83
2023/05/13 00:33:02;;;;;;;8.27;7.43;;;7.90;99.90;8.80;94014.00;;;;7405027;19;20136;-83
2023/05/13 00:35:36;;;;;;;8.48;7.00;;;7.90;99.90;8.80;94015.00;;;;7405125;19;20133;-84
2023/05/13 00:38:03;;;;;;;11.15;7.85;;;7.90;99.90;8.70;94033.00;;;;7405304;19;20133;-84
2023/05/13 00:40:38;;;;;;;8.05;7.07;;;7.90;99.90;8.60;94042.00;;;;7406320;19;20197;-84
2023/05/13 00:43:05;;;;;;;9.50;6.80;;;7.90;99.90;8.70;94020.00;;;;7404725;19;20208;-84
2023/05/13 00:45:39;;;;;;;7.15;6.35;;;7.90;99.90;8.60;94026.00;;;;7402038;19;20133;-84
2023/05/13 00:48:13;;;;;;;9.75;6.70;;;7.80;99.90;8.50;94040.00;;;;7409184;19;20606;-83
2023/05/13 00:50:48;;;;;;;8.07;6.68;;;7.80;99.90;8.30;94014.00;;;;7406193;19;20155;-84
2023/05/13 00:53:21;;;;;;;8.88;6.60;;;7.60;99.90;8.10;94034.00;;;;7404848;19;20174;-83
2023/05/13 00:55:49;;;;;;;12.70;6.43;;;7.50;99.90;7.90;94007.00;;;;7404661;19;20137;-84
2023/05/13 00:58:22;;;;;;;8.40;5.95;;;7.40;99.90;7.80;94017.00;;;;7402029;19;20129;-83
2023/05/13 01:01:32;;;;;;;11.48;5.88;;;7.30;99.90;7.80;94037.00;;;;7397728;19;20232;-77
2023/05/13 01:04:43;;;;;;;7.37;6.27;;;7.10;99.90;7.80;94033.00;;;;7402274;19;20484;-78
2023/05/13 01:07:26;;;;;;;7.23;5.80;;;7.00;99.90;7.80;94033.00;;;;7401029;19;20133;-78
2023/05/13 01:10:22;;;;;;;9.70;7.33;;;7.00;99.90;7.90;94007.00;;;;7402048;19;20148;-76
2023/05/13 01:12:56;;;;;;;9.40;7.73;;;7.10;99.90;8.00;94035.00;;;;7399690;19;20671;-77
2023/05/13 01:15:32;;;;;;;12.27;8.30;;;7.10;99.90;8.10;93981.00;;;;7399866;19;20137;-79
2023/05/13 01:18:12;;;;;;;8.73;7.83;;;7.20;99.90;8.00;94036.00;;;;7401658;19;20157;-78
2023/05/13 01:20:45;;;;;;;10.07;7.93;;;7.20;99.90;8.10;94029.00;;;;7400942;19;20133;-79
2023/05/13 01:23:13;;;;;;;11.67;8.23;;;7.30;99.90;8.10;94017.00;;;;7401273;19;20595;-78
2023/05/13 01:25:47;;;;;;;11.85;8.30;;;7.30;99.90;8.20;94027.00;;;;7397587;19;20157;-78
2023/05/13 01:28:15;;;;;;;11.02;7.97;;;7.40;99.90;8.20;94028.00;;;;7401781;19;20501;-77
2023/05/13 01:30:49;;;;;;;8.60;7.70;;;7.40;99.90;8.30;94023.00;;;;7399709;19;20136;-78
2023/05/13 01:33:17;;;;;;;9.73;8.00;;;7.40;99.90;8.40;93999.00;;;;7400559;19;20208;-78
2023/05/13 01:35:51;;;;;;;10.85;8.38;;;7.50;1.00;8.40;94018.00;;;;7400050;19;20148;-80
2023/05/13 01:38:20;;;;;;;9.25;7.70;;;7.50;1.00;8.50;94033.00;;;;7398974;19;20132;-78
2023/05/13 01:40:55;;;;;;;11.00;7.57;;;7.50;1.00;8.40;94028.00;;;;7401210;19;20136;-77
2023/05/13 01:43:28;;;;;;;9.10;7.72;;;7.50;1.00;8.20;94044.00;;;;7402102;19;20591;-78
2023/05/13 01:45:59;;;;;;;10.75;7.20;;;7.40;1.00;8.30;94028.00;;;;7398180;19;20216;-78
2023/05/13 01:48:32;;;;;;;11.27;9.03;;;7.40;1.00;8.30;93991.00;;;;7399028;19;20136;-80
2023/05/13 01:50:59;;;;;;;11.33;7.63;;;7.40;1.00;8.20;93997.00;;;;7401624;19;20149;-80
2023/05/13 01:53:33;;;;;;;13.00;8.40;;;7.40;1.00;8.30;93996.00;;;;7400262;19;20159;-77
2023/05/13 01:56:10;;;;;;;11.68;7.47;;;7.40;1.00;8.20;94030.00;;;;7399389;19;20611;-78
2023/05/13 01:58:37;;;;;;;8.90;7.30;;;7.40;1.00;8.20;94025.00;;;;7400836;19;20140;-78
2023/05/13 02:01:18;;;;;;;10.35;7.32;;;7.30;1.00;8.20;94032.00;;;;7398743;19;20172;-78
2023/05/13 02:03:58;;;;;;;13.00;7.40;;;7.40;1.00;8.10;94039.00;;;;7399188;19;20160;-78
2023/05/13 02:06:32;;;;;;;9.75;7.03;;;7.30;1.00;8.20;94034.00;;;;7400128;19;20125;-77
2023/05/13 02:08:59;;;;;;;11.33;7.33;;;7.30;1.00;8.10;94040.00;;;;7399949;19;20133;-76
2023/05/13 02:11:34;;;;;;;10.20;7.50;;;7.30;1.00;8.10;94038.00;;;;7398685;19;20216;-79
2023/05/13 02:14:01;;;;;;;10.80;7.88;;;7.30;1.00;8.20;94033.00;;;;7398232;19;20517;-77
2023/05/13 02:16:30;;;;;;;9.07;7.63;;;7.30;1.00;8.20;94056.00;;;;7397854;19;20152;-78
2023/05/13 02:19:04;;;;;;;7.93;6.95;;;7.40;1.00;8.20;93998.00;;;;7399692;19;20588;-78
2023/05/13 02:21:31;;;;;;;9.10;7.93;;;7.40;1.00;8.20;94037.00;;;;7398145;19;20663;-78
2023/05/13 02:24:05;;;;;;;8.57;7.03;;;7.40;1.00;8.20;94032.00;;;;7398794;19;20129;-78
2023/05/13 02:26:40;;;;;;;7.72;6.93;;;7.40;1.00;8.10;94013.00;;;;7397607;19;20148;-76
2023/05/13 02:29:13;;;;;;;9.35;7.53;;;7.40;1.00;8.30;94024.00;;;;7400130;19;20132;-77
2023/05/13 02:31:42;;;;;;;10.83;6.90;;;7.40;1.00;8.00;94036.00;;;;7398677;19;20159;-76
2023/05/13 02:34:15;;;;;;;8.80;7.25;;;7.40;1.00;8.30;94015.00;;;;7398715;19;20554;-77
2023/05/13 02:36:42;;;;;;;15.32;6.95;;;7.40;1.00;8.20;94028.00;;;;7397250;19;20133;-79
2023/05/13 02:39:16;;;;;;;9.65;6.63;;;7.40;1.00;8.00;93996.00;;;;7398732;19;20153;-78
2023/05/13 02:41:43;;;;;;;11.20;7.25;;;7.30;1.00;7.90;94026.00;;;;7399890;19;20133;-78
2023/05/13 02:44:17;;;;;;;7.53;6.60;;;7.20;1.00;7.70;93996.00;;;;7399727;19;20141;-80
2023/05/13 02:46:44;;;;;;;8.45;6.70;;;7.10;1.00;7.50;94032.00;;;;7398896;19;20218;-79
2023/05/13 02:49:18;;;;;;;8.30;6.53;;;6.90;1.00;7.30;94041.00;;;;7397767;19;20144;-80
2023/05/13 02:51:51;;;;;;;8.55;6.03;;;6.70;99.90;7.20;94001.00;;;;7398984;19;20639;-79
2023/05/13 02:54:25;;;;;;;7.77;6.80;;;6.60;99.90;7.10;94033.00;;;;7398230;19;20137;-79
2023/05/13 02:56:52;;;;;;;9.73;6.50;;;6.50;99.90;7.00;94000.00;;;;7398373;19;20619;-79
2023/05/13 02:59:26;;;;;;;8.18;6.80;;;6.40;99.90;7.00;94017.00;;;;7399647;19;20140;-78
2023/05/13 03:01:53;;;;;;;15.57;6.63;;;6.30;99.90;6.80;94031.00;;;;7396338;19;20179;-77
2023/05/13 03:04:36;;;;;;;7.78;6.20;;;6.30;99.90;6.70;94042.00;;;;7397867;19;20542;-79
2023/05/13 03:07:10;;;;;;;11.20;6.17;;;6.10;99.90;6.60;93964.00;;;;7397817;19;20136;-78
2023/05/13 03:09:44;;;;;;;10.97;6.83;;;6.00;99.90;6.50;93989.00;;;;7397675;19;20615;-77
2023/05/13 03:12:11;;;;;;;8.83;6.77;;;5.90;99.90;6.50;94037.00;;;;7397534;19;20575;-79
2023/05/13 03:14:45;;;;;;;9.07;6.10;;;5.80;99.90;6.50;94037.00;;;;7398813;19;20150;-77
2023/05/13 03:17:12;;;;;;;9.50;7.60;;;5.80;99.90;6.50;94038.00;;;;7398778;19;20136;-80
2023/05/13 03:19:46;;;;;;;11.20;7.50;;;5.80;99.90;6.60;93998.00;;;;7400277;19;20129;-76
2023/05/13 03:22:14;;;;;;;11.53;6.90;;;5.80;99.90;6.50;93998.00;;;;7397749;19;20624;-77
2023/05/13 03:24:47;;;;;;;14.07;7.70;;;5.80;1.40;6.20;93954.00;;;;7397638;19;20141;-77
2023/05/13 03:27:14;;;;;;;9.40;8.03;;;5.90;1.00;6.50;94031.00;;;;7397947;19;20644;-79
2023/05/13 03:29:48;;;;;;;10.27;8.27;;;5.80;1.00;6.40;94023.00;;;;7397735;19;20156;-79
2023/05/13 03:32:15;;;;;;;11.00;7.53;;;5.80;1.00;6.30;94028.00;;;;7396855;19;20616;-78
2023/05/13 03:34:50;;;;;;;11.43;8.00;;;5.70;1.00;6.20;93961.00;;;;7399129;19;20156;-78
2023/05/13 03:37:25;;;;;;;11.23;8.23;;;5.50;99.90;6.10;94039.00;;;;7398851;19;20137;-80
2023/05/13 03:39:59;;;;;;;10.07;7.90;;;5.50;99.90;6.10;94039.00;;;;7398356;19;20189;-79
2023/05/13 03:42:26;;;;;;;11.67;8.27;;;5.40;99.90;6.10;94011.00;;;;7397998;19;20141;-78
2023/05/13 03:44:55;;;;;;;14.40;8.53;;;5.40;99.90;6.10;94005.00;;;;7398000;19;20139;-78
2023/05/13 03:47:29;;;;;;;14.77;9.27;;;5.30;1.00;6.30;94009.00;;;;7401161;19;20619;-81
2023/05/13 03:50:04;;;;;;;10.63;8.97;;;5.50;1.00;6.30;93991.00;;;;7406290;19;20136;-78
2023/05/13 03:52:38;;;;;;;11.40;8.83;;;5.50;1.00;6.20;94045.00;;;;7404333;19;20132;-79
2023/05/13 03:55:13;;;;;;;16.57;9.30;;;5.50;1.00;6.20;94029.00;;;;7403614;19;20136;-79
2023/05/13 03:57:48;;;;;;;13.87;9.40;;;5.50;1.00;6.40;94043.00;;;;7402987;19;20156;-77
2023/05/13 04:00:16;;;;;;;12.50;9.37;;;5.50;1.00;6.30;94006.00;;;;7404624;19;20133;-79
2023/05/13 04:02:56;;;;;;;17.43;9.90;;;5.50;1.00;6.30;94044.00;;;;7401218;19;20144;-78
2023/05/13 04:05:29;;;;;;;13.43;9.27;;;5.50;1.00;6.30;94009.00;;;;7401180;19;20619;-78
2023/05/13 04:08:04;;;;;;;12.10;9.17;;;5.50;1.00;6.50;94054.00;;;;7402586;19;20151;-77
2023/05/13 04:10:38;;;;;;;11.93;9.57;;;5.60;1.00;6.40;94012.00;;;;7402615;19;20143;-78
2023/05/13 04:13:05;;;;;;;12.77;9.03;;;5.70;1.00;6.50;94042.00;;;;7403258;19;20133;-79
2023/05/13 04:15:33;;;;;;;10.73;8.60;;;5.70;1.00;6.60;94054.00;;;;7402905;19;20144;-80
2023/05/13 04:18:09;;;;;;;11.33;9.20;;;5.80;1.00;6.60;94039.00;;;;7403704;19;20140;-81
2023/05/13 04:20:42;;;;;;;12.07;8.47;;;5.90;1.00;6.70;94017.00;;;;7402023;19;20161;-80
2023/05/13 04:23:09;;;;;;;13.30;9.03;;;5.90;1.00;6.70;94063.00;;;;7402671;19;20148;-81
2023/05/13 04:25:51;;;;;;;12.23;8.33;;;6.00;1.00;6.80;94009.00;;;;7400926;19;20140;-78
2023/05/13 04:28:19;;;;;;;11.13;8.40;;;6.00;1.00;6.90;94050.00;;;;7401749;19;20148;-79
2023/05/13 04:30:53;;;;;;;11.07;8.60;;;6.10;1.00;6.90;93988.00;;;;7403175;19;20137;-78
2023/05/13 04:33:20;;;;;;;10.90;8.97;;;6.10;1.00;7.00;94038.00;;;;7404240;19;20129;-81
2023/05/13 04:35:53;;;;;;;12.60;8.60;;;6.10;1.00;7.00;94041.00;;;;7402256;19;20129;-77
2023/05/13 04:38:20;;;;;;;10.37;8.13;;;6.10;1.00;7.00;94005.00;;;;7400283;19;20584;-79
2023/05/13 04:41:01;;;;;;;11.33;7.73;;;6.10;1.00;7.00;94026.00;;;;7401312;19;20770;-78
2023/05/13 04:43:28;;;;;;;9.87;7.40;;;6.10;1.00;7.00;93993.00;;;;7403133;19;20503;-78
2023/05/13 04:46:02;;;;;;;9.53;8.07;;;6.10;1.00;7.10;94008.00;;;;7395699;19;20524;-79
2023/05/13 04:48:36;;;;;;;11.03;7.50;;;6.10;1.00;7.10;94034.00;;;;7400208;19;20133;-76
2023/05/13 04:51:04;;;;;;;12.50;8.10;;;6.10;1.00;7.20;94025.00;;;;7401406;19;20157;-77
2023/05/13 04:53:38;;;;;;;9.37;7.73;;;6.10;1.00;7.40;94066.00;;;;7401323;19;20125;-79
2023/05/13 04:56:05;;;;;;;10.50;8.33;;;6.20;1.00;7.40;94065.00;;;;7401926;19;20129;-76
2023/05/13 04:58:39;;;;;;;9.97;8.17;;;6.30;1.00;7.50;94050.00;;;;7400555;19;20614;-78
2023/05/13 05:01:19;;;;;;;8.67;7.43;;;6.30;1.00;7.60;94060.00;;;;7400049;19;20137;-76
2023/05/13 05:03:53;;;;;;;8.73;7.80;;;6.40;1.00;7.60;94064.00;;;;7399688;19;20138;-76
2023/05/13 05:06:21;;;;;;;10.20;7.63;;;6.50;1.00;7.70;94067.00;;;;7398353;19;20145;-80
2023/05/13 05:08:54;;;;;;;11.17;7.70;;;6.50;1.00;7.80;94070.00;;;;7400580;19;20633;-79
2023/05/13 05:11:21;;;;;;;7.83;7.00;;;6.60;1.00;7.90;94028.00;;;;7400015;19;20152;-77
2023/05/13 05:13:55;;;;;;;7.80;6.60;;;6.70;1.00;8.00;94066.00;;;;7399969;19;20133;-79
2023/05/13 05:16:23;;;;;;;8.33;6.40;;;6.90;1.00;8.00;94080.00;;;;7400317;19;20235;-77
2023/05/13 05:18:56;;;;;;;9.57;6.78;;;6.90;1.00;8.10;94069.00;;;;7401065;19;20149;-78
2023/05/13 05:21:23;;;;;;;6.83;6.13;;;6.90;1.00;8.00;94068.00;;;;7400132;19;20483;-79
2023/05/13 05:23:58;;;;;;;6.60;5.80;;;7.10;1.00;8.00;94065.00;;;;7399059;19;20659;-74
2023/05/13 05:26:25;;;;;;;7.67;6.60;;;7.10;1.00;8.20;94053.00;;;;7391600;19;20149;-79
2023/05/13 05:28:58;;;;;;;6.30;5.70;;;7.20;1.00;8.50;94048.00;;;;7397822;19;20169;-78
2023/05/13 05:31:26;;;;;;;6.25;5.65;;;7.30;1.00;8.50;94071.00;;;;7391638;19;20137;-78
2023/05/13 05:34:00;;;;;;;5.90;5.35;;;7.30;1.00;8.70;94078.00;;;;7380134;19;24184;-77
2023/05/13 05:36:33;;;;;;;6.43;5.15;;;7.40;1.00;8.70;94080.00;;;;7384666;19;20588;-75
2023/05/13 05:39:07;;;;;;;13.15;5.20;;;7.50;1.00;8.90;94089.00;;;;7385229;19;20176;-77
2023/05/13 05:41:41;;;;;;;6.20;4.65;;;7.60;1.00;9.00;94077.00;;;;7383109;19;20742;-78
2023/05/13 05:44:15;;;;;;;4.95;4.40;;;7.60;99.90;9.00;94093.00;;;;7383630;19;20173;-79
2023/05/13 05:46:42;;;;;;;5.13;4.63;;;7.80;93.00;9.20;94039.00;;;;7382615;19;20142;-77
2023/05/13 05:49:16;;;;;;;5.00;4.50;;;7.90;1.00;9.40;94086.00;;;;7382322;19;20138;-77
2023/05/13 05:51:50;;;;;;;4.50;4.07;;;8.10;1.00;9.40;94059.00;;;;7383668;19;20156;-78
2023/05/13 05:54:17;;;;;;;4.80;4.18;;;8.20;99.90;8.90;94078.00;;;;7383274;19;20164;-76
2023/05/13 05:56:51;;;;;;;5.60;4.30;;;8.10;1.00;9.10;94063.00;;;;7382177;19;20137;-78
2023/05/13 05:59:18;;;;;;;4.90;4.00;;;8.10;99.90;9.00;94031.00;;;;7383574;19;20149;-78
2023/05/13 06:01:52;;;;;;;4.45;3.70;;;8.10;99.90;9.10;94054.00;;;;7382659;19;20644;-79
2023/05/13 06:04:33;;;;;;;6.65;4.20;;;8.20;99.90;9.30;94088.00;;;;7385848;19;20605;-77
2023/05/13 06:07:01;;;;;;;4.38;3.70;;;8.30;99.90;9.30;94034.00;;;;7385856;19;20160;-76
2023/05/13 06:09:36;;;;;;;4.93;3.80;;;8.40;65.00;9.30;94104.00;;;;7386224;19;20157;-77
2023/05/13 06:12:10;;;;;;;4.22;3.83;;;8.50;99.90;9.40;94084.00;;;;7382279;19;20164;-75
2023/05/13 06:14:44;;;;;;;5.82;3.80;;;8.60;1.00;9.50;94069.00;;;;7386530;19;20152;-79
2023/05/13 06:17:13;;;;;;;4.68;3.97;;;8.60;1.00;9.30;94105.00;;;;7386473;19;20140;-75
2023/05/13 06:19:47;;;;;;;5.13;3.70;;;8.60;1.00;9.30;94089.00;;;;7385669;19;20152;-75
2023/05/13 06:22:15;;;;;;;4.28;3.88;;;8.60;1.00;9.30;94064.00;;;;7386753;19;22200;-76
2023/05/13 06:24:48;;;;;;;4.13;3.55;;;8.60;1.00;9.60;94063.00;;;;7383175;19;20133;-76
2023/05/13 06:27:22;;;;;;;4.75;4.00;;;8.60;1.00;9.70;94081.00;;;;7383627;19;20129;-76
2023/05/13 06:29:55;;;;;;;5.85;4.45;;;8.80;1.00;9.70;94075.00;;;;7384201;19;20442;-78
2023/05/13 06:32:29;;;;;;;4.25;3.80;;;8.80;99.90;9.80;94101.00;;;;7382398;19;20170;-78
2023/05/13 06:35:08;;;;;;;5.07;3.80;;;8.90;1.00;9.70;94084.00;;;;7383164;19;20137;-77
2023/05/13 06:37:43;;;;;;;3.88;3.55;;;9.10;1.00;10.10;94105.00;;;;7383327;19;20168;-78
2023/05/13 06:40:18;;;;;;;3.80;3.22;;;9.20;99.90;10.10;94111.00;;;;7382499;19;20153;-75
2023/05/13 06:42:45;;;;;;;3.75;3.45;;;9.30;99.90;10.10;94081.00;;;;7383240;19;20497;-77
2023/05/13 06:45:22;;;;;;;8.63;3.60;;;9.40;99.90;10.30;94095.00;;;;7381882;19;20151;-76
2023/05/13 06:47:52;;;;;;;3.72;3.40;;;9.50;1.00;10.30;94113.00;;;;7382398;19;20148;-76
2023/05/13 06:50:26;;;;;;;4.00;3.45;;;9.60;1.00;10.60;94110.00;;;;7382889;19;20139;-75
2023/05/13 06:52:53;;;;;;;4.65;2.95;;;9.70;1.00;10.30;94113.00;;;;7383675;19;20588;-76
2023/05/13 06:55:27;;;;;;;3.33;3.00;;;9.80;99.90;10.30;94110.00;;;;7380503;19;20199;-77
2023/05/13 06:57:55;;;;;;;3.45;3.00;;;9.90;99.90;10.50;94042.00;;;;7380981;19;20497;-76
2023/05/13 07:00:28;;;;;;;4.03;3.22;;;9.90;99.90;10.50;94103.00;;;;7381081;19;20148;-78
2023/05/13 07:03:16;;;;;;;3.17;2.60;;;10.00;51.80;10.50;94110.00;;;;7381176;19;20524;-76
2023/05/13 07:05:54;;;;;;;7.85;3.65;;;10.00;1.00;10.80;94105.00;;;;7381847;19;20142;-76
2023/05/13 07:08:22;;;;;;;3.35;3.05;;;10.10;1.00;10.90;94080.00;;;;7383347;19;20640;-79
2023/05/13 07:10:56;;;;;;;5.10;3.10;;;10.30;1.00;11.30;94112.00;;;;7382905;19;20145;-76
2023/05/13 07:13:23;;;;;;;5.18;3.17;;;10.40;1.00;11.40;94108.00;;;;7382640;19;20133;-75
2023/05/13 07:15:58;;;;;;;3.45;3.05;;;10.50;99.90;11.30;94115.00;;;;7380196;19;20149;-78
2023/05/13 07:18:25;;;;;;;3.40;3.10;;;10.60;99.90;11.40;94123.00;;;;7382408;19;20129;-76
2023/05/13 07:21:01;;;;;;;4.35;3.25;;;10.80;99.90;11.50;94108.00;;;;7381153;19;20151;-75
2023/05/13 07:23:28;;;;;;;3.45;3.15;;;10.70;99.90;11.50;94108.00;;;;7386273;19;20543;-77
2023/05/13 07:26:02;;;;;;;3.25;2.90;;;10.60;1.00;11.40;94121.00;;;;7386203;19;20152;-78
2023/05/13 07:28:30;;;;;;;4.07;3.63;;;10.60;99.90;11.40;94089.00;;;;7388746;19;20188;-77
2023/05/13 07:31:04;;;;;;;6.10;3.67;;;10.80;99.90;12.00;94025.00;;;;7387849;19;20144;-73
2023/05/13 07:33:31;;;;;;;4.38;3.47;;;10.90;1.00;12.50;94097.00;;;;7386562;19;20129;-74
2023/05/13 07:36:06;;;;;;;5.03;3.47;;;11.20;1.00;12.70;94084.00;;;;7395677;19;20526;-75
2023/05/13 07:38:36;;;;;;;4.90;3.60;;;11.50;4.70;12.80;94120.00;;;;7398793;19;20498;-75
2023/05/13 07:41:10;;;;;;;5.82;3.42;;;11.60;1.00;12.60;94120.00;;;;7402479;19;20133;-74
2023/05/13 07:43:43;;;;;;;3.50;3.20;;;11.70;1.00;12.30;94125.00;;;;7401502;19;20160;-75
2023/05/13 07:46:18;;;;;;;6.15;3.50;;;11.80;1.00;12.60;94098.00;;;;7395612;19;20504;-75
2023/05/13 07:48:48;;;;;;;4.20;3.70;;;11.90;1.00;12.50;94080.00;;;;7404083;19;20533;-74
2023/05/13 07:51:22;;;;;;;4.13;3.72;;;12.00;99.90;12.40;94125.00;;;;7399989;19;20133;-74
2023/05/13 07:53:51;;;;;;;5.03;3.65;;;11.80;99.90;12.10;94116.00;;;;7403509;19;20137;-76
2023/05/13 07:56:26;;;;;;;5.10;4.00;;;11.70;1.00;12.30;94122.00;;;;7401198;19;20627;-73
2023/05/13 07:58:53;;;;;;;21.52;4.70;;;11.60;1.00;12.30;94126.00;;;;7403846;19;20484;-74
2023/05/13 08:01:29;;;;;;;5.57;4.15;;;11.70;1.00;12.50;94122.00;;;;7399639;19;20172;-73
2023/05/13 08:04:10;;;;;;;4.82;3.60;;;11.70;99.90;12.30;94131.00;;;;7403178;19;20600;-75
2023/05/13 08:06:44;;;;;;;6.50;3.95;;;11.50;1.00;12.40;94086.00;;;;7401748;19;20135;-76
2023/05/13 08:09:13;;;;;;;8.38;4.15;;;11.40;1.00;12.30;94132.00;;;;7403084;19;20542;-74
2023/05/13 08:11:47;;;;;;;6.40;4.47;;;11.30;99.90;12.10;94129.00;;;;7403108;19;20153;-76
2023/05/13 08:14:15;;;;;;;5.97;4.30;;;11.20;99.90;12.00;94112.00;;;;7402791;19;20143;-76
2023/05/13 08:16:42;;;;;;;6.80;3.80;;;11.10;99.90;12.40;94103.00;;;;7402380;19;20153;-75
2023/05/13 08:19:16;;;;;;;5.00;4.05;;;11.10;1.00;12.50;94091.00;;;;7402079;19;20141;-75
2023/05/13 08:21:43;;;;;;;8.30;4.30;;;11.30;1.00;12.40;94100.00;;;;7403352;19;20137;-74
2023/05/13 08:24:16;;;;;;;4.82;3.95;;;11.50;1.00;12.30;94126.00;;;;7403474;19;20600;-76
2023/05/13 08:26:43;;;;;;;5.93;4.10;;;11.50;99.90;12.20;94125.00;;;;7399816;19;20664;-75
2023/05/13 08:29:17;;;;;;;6.53;4.28;;;11.50;99.90;12.30;94128.00;;;;7402378;19;20184;-76
2023/05/13 08:31:52;;;;;;;6.53;4.03;;;11.60;99.90;12.30;94144.00;;;;7402646;19;20137;-76
2023/05/13 08:34:25;;;;;;;4.30;3.90;;;11.60;1.00;12.20;94101.00;;;;7398903;19;20141;-74
2023/05/13 08:36:53;;;;;;;6.93;4.15;;;11.60;99.90;12.20;94132.00;;;;7402106;19;20161;-74
2023/05/13 08:39:27;;;;;;;4.47;3.78;;;11.60;99.90;12.20;94113.00;;;;7402366;19;20137;-75
2023/05/13 08:41:59;;;;;;;4.72;4.10;;;11.50;1.00;12.20;94103.00;;;;7401862;19;20141;-76
2023/05/13 08:44:38;;;;;;;6.53;4.05;;;11.50;99.90;12.30;94138.00;;;;7400511;19;20523;-75
2023/05/13 08:47:43;;;;;;;7.80;3.90;;;11.30;99.90;12.20;94121.00;;;;7400420;19;20132;-75
2023/05/13 08:50:19;;;;;;;5.20;3.88;;;11.30;1.00;12.60;94145.00;;;;7402404;19;20133;-74
2023/05/13 08:52:53;;;;;;;4.20;3.30;;;11.50;99.90;13.00;94101.00;;;;7401780;19;20614;-77
2023/05/13 08:55:27;;;;;;;4.20;3.63;;;11.70;99.90;12.90;94140.00;;;;7401643;19;20488;-72
2023/05/13 08:57:55;;;;;;;4.43;3.60;;;11.90;99.90;12.90;94145.00;;;;7400277;19;20149;-75
2023/05/13 09:00:23;;;;;;;4.43;3.70;;;11.90;99.90;12.90;94110.00;;;;7399767;19;20141;-74
2023/05/13 09:03:02;;;;;;;3.92;3.63;;;11.90;99.90;12.50;94146.00;;;;7398842;19;20169;-80
2023/05/13 09:05:30;;;;;;;4.32;3.70;;;11.80;99.90;12.70;94077.00;;;;7400108;19;20144;-80
2023/05/13 09:08:08;;;;;;;5.43;3.45;;;11.80;99.90;13.20;94146.00;;;;7399455;19;20600;-78
2023/05/13 09:10:37;;;;;;;5.22;3.88;;;12.00;99.90;13.20;94144.00;;;;7401030;19;20137;-73
2023/05/13 09:13:12;;;;;;;6.85;3.28;;;12.20;99.90;13.40;94156.00;;;;7400124;19;20152;-78
2023/05/13 09:15:46;;;;;;;3.90;3.50;;;12.20;99.90;13.20;94111.00;;;;7399210;19;20208;-79
2023/05/13 09:18:19;;;;;;;5.28;3.67;;;12.20;99.90;13.20;94143.00;;;;7399699;19;20136;-77
2023/05/13 09:21:26;;;;;;;4.90;3.95;;;12.10;99.90;12.90;94159.00;;;;7400782;19;20595;-81
2023/05/13 09:24:08;;;;;;;4.20;3.80;;;11.90;99.90;12.80;94152.00;;;;7401344;19;20184;-75
2023/05/13 09:26:40;;;;;;;3.97;3.58;;;11.80;99.90;12.90;94153.00;;;;7399341;19;20125;-74
2023/05/13 09:29:25;;;;;;;4.10;3.70;;;11.90;99.90;13.00;94153.00;;;;7401066;19;20164;-77
2023/05/13 09:32:05;;;;;;;5.43;3.63;;;12.10;99.90;13.40;94163.00;;;;7399155;19;20161;-74
2023/05/13 09:34:46;;;;;;;5.32;4.05;;;12.20;99.90;13.00;94140.00;;;;7400549;19;20136;-75
2023/05/13 09:37:23;;;;;;;4.65;3.20;;;12.10;99.90;12.80;94163.00;;;;7398148;19;20166;-74
2023/05/13 09:39:56;;;;;;;6.30;3.78;;;12.10;99.90;12.70;94137.00;;;;7398972;19;20494;-73
2023/05/13 09:42:34;;;;;;;3.53;3.10;;;12.20;99.90;13.10;94154.00;;;;7399365;19;20132;-72
2023/05/13 09:45:05;;;;;;;5.03;3.83;;;12.10;99.90;13.10;94164.00;;;;7398440;19;20133;-76
2023/05/13 09:47:41;;;;;;;3.78;3.47;;;12.10;99.90;12.80;94164.00;;;;7397113;19;20148;-76
2023/05/13 09:50:10;;;;;;;4.65;3.60;;;11.90;99.90;12.80;94144.00;;;;7398288;19;20137;-76
2023/05/13 09:52:45;;;;;;;4.80;4.20;;;12.00;99.90;12.90;94166.00;;;;7399992;19;20184;-76
2023/05/13 09:55:22;;;;;;;4.20;3.80;;;11.90;99.90;12.80;94171.00;;;;7398421;19;20157;-77
2023/05/13 09:57:53;;;;;;;7.25;4.38;;;11.90;99.90;12.50;94138.00;;;;7398470;19;20133;-76
2023/05/13 10:00:26;;;;;;;6.45;4.60;;;11.70;99.90;12.60;94182.00;;;;7399158;19;20128;-75
2023/05/13 10:03:13;;;;;;;7.10;4.40;;;11.60;99.90;12.60;94142.00;;;;7396787;19;20147;-77
2023/05/13 10:05:52;;;;;;;4.88;4.40;;;11.40;99.90;12.30;94189.00;;;;7399266;19;20136;-75
2023/05/13 10:08:21;;;;;;;4.72;4.32;;;11.40;99.90;12.60;94138.00;;;;7395646;19;20145;-74
2023/05/13 10:10:55;;;;;;;4.93;3.55;;;11.50;99.90;12.50;94189.00;;;;7399373;19;20137;-74
2023/05/13 10:13:24;;;;;;;3.65;3.30;;;11.70;99.90;12.50;94185.00;;;;7399331;19;20125;-73
2023/05/13 10:15:58;;;;;;;3.58;3.03;;;11.70;99.90;12.50;94186.00;;;;7398927;19;20136;-75
2023/05/13 10:18:27;;;;;;;4.72;3.42;;;11.70;99.90;12.70;94173.00;;;;7398058;19;20600;-75
2023/05/13 10:21:03;;;;;;;4.38;3.53;;;11.80;99.90;12.80;94182.00;;;;7397618;19;20205;-75
2023/05/13 10:23:32;;;;;;;3.35;3.05;;;11.90;99.90;12.90;94188.00;;;;7398514;19;20557;-74
2023/05/13 10:26:07;;;;;;;3.70;3.17;;;12.00;99.90;12.80;94183.00;;;;7398026;19;20214;-76
2023/05/13 10:28:46;;;;;;;3.72;3.35;;;12.00;99.90;13.00;94168.00;;;;7398343;19;20145;-75
2023/05/13 10:31:16;;;;;;;3.42;3.08;;;11.90;99.90;13.30;94183.00;;;;7398708;19;20133;-74
2023/05/13 10:33:52;;;;;;;5.10;3.28;;;12.00;99.90;13.40;94177.00;;;;7398751;19;20163;-74
2023/05/13 10:37:09;;;;;;;4.45;3.47;;;12.10;99.90;13.60;94178.00;;;;7397519;19;20422;-77
2023/05/13 10:40:04;;;;;;;3.97;3.58;;;12.20;99.90;13.20;94179.00;;;;7398660;19;20163;-75
2023/05/13 10:42:41;;;;;;;6.85;4.63;;;12.20;99.90;13.50;94183.00;;;;7397072;19;20212;-74
2023/05/13 10:45:16;;;;;;;3.47;3.08;;;12.40;99.90;13.70;94136.00;;;;7396710;19;20154;-75
2023/05/13 10:47:43;;;;;;;6.45;3.30;;;12.40;99.90;13.70;94183.00;;;;7394978;19;20144;-74
2023/05/13 10:50:24;;;;;;;3.20;2.90;;;12.60;99.90;13.80;94184.00;;;;7398719;19;20602;-73
2023/05/13 10:52:57;;;;;;;4.22;3.35;;;12.50;99.90;13.90;94180.00;;;;7397948;19;20120;-74
2023/05/13 10:55:43;;;;;;;6.78;3.17;;;12.70;99.90;13.90;94164.00;;;;7396820;19;20613;-73
2023/05/13 10:58:21;;;;;;;3.78;3.33;;;13.00;99.90;14.50;94176.00;;;;7408797;19;20152;-74
2023/05/13 11:01:24;;;;;;;4.32;3.47;;;13.20;99.90;14.60;94142.00;;;;7410804;19;20167;-73
2023/05/13 11:04:10;;;;;;;3.75;3.45;;;13.60;91.70;15.00;94169.00;;;;7410202;19;20169;-75
2023/05/13 11:06:47;;;;;;;3.95;3.65;;;13.50;1.00;14.70;94111.00;;;;7409814;19;20152;-75
2023/05/13 11:09:30;;;;;;;4.72;4.15;;;13.50;3.60;15.00;94169.00;;;;7412039;19;20140;-77
2023/05/13 11:11:58;;;;;;;3.40;3.10;;;13.60;1.00;14.90;94176.00;;;;7411867;19;20132;-80
2023/05/13 11:14:34;;;;;;;3.22;2.92;;;13.80;3.80;15.50;94159.00;;;;7411038;19;20139;-79
2023/05/13 11:17:11;;;;;;;3.75;3.17;;;13.80;2.50;15.50;94163.00;;;;7411254;19;20157;-75
2023/05/13 11:19:48;;;;;;;4.50;2.78;;;14.00;1.00;15.90;94176.00;;;;7409758;19;20540;-75
2023/05/13 11:22:22;;;;;;;3.88;2.65;;;14.40;1.00;15.90;94117.00;;;;7411296;19;20137;-78
2023/05/13 11:25:09;;;;;;;2.65;2.45;;;14.40;1.00;15.20;94161.00;;;;7411323;19;20596;-74
2023/05/13 11:27:41;;;;;;;2.85;2.47;;;14.70;1.00;14.70;94179.00;;;;7408804;19;20536;-74
2023/05/13 11:30:25;;;;;;;3.13;2.88;;;14.30;1.00;14.50;94179.00;;;;7410204;19;20228;-73
2023/05/13 11:32:58;;;;;;;3.67;2.80;;;14.00;1.00;14.60;94187.00;;;;7410548;19;20141;-76
2023/05/13 11:35:33;;;;;;;4.13;3.13;;;13.90;1.00;14.70;94143.00;;;;7411395;19;20220;-74